Time;durP1;ratioP1;P1;durP2;ratioP2;P2;SDS_P1;SDS_P2;PMS_P1;PMS_P2;Temp;Humidity;BMP_temperature;BMP_pressure;BME280_temperature;BME280_humidity;BME280_pressure;Samples;Min_cycle;Max_cycle;Signal;HPM_P1;HPM_P2
2024/02/04 00:02:07;;;;;;;4.87;1.90;;;8.70;99.90;;;;;;5056420;28;20447;-49
2024/02/04 00:04:34;;;;;;;2.50;1.20;;;8.70;99.90;;;;;;5056228;28;20491;-52
2024/02/04 00:07:01;;;;;;;2.10;1.50;;;8.70;99.90;;;;;;5056101;28;20428;-49
2024/02/04 00:09:29;;;;;;;8.33;3.10;;;8.70;99.90;;;;;;5055822;28;20459;-64
2024/02/04 00:11:57;;;;;;;5.60;1.63;;;8.70;99.90;;;;;;5055906;28;20525;-64
2024/02/04 00:14:29;;;;;;;12.63;2.63;;;8.70;99.90;;;;;;5056247;28;20428;-64
2024/02/04 00:16:57;;;;;;;7.47;1.63;;;8.70;99.90;;;;;;5056292;28;20458;-65
2024/02/04 00:19:24;;;;;;;10.47;1.87;;;8.70;99.90;;;;;;5056095;28;20444;-64
2024/02/04 00:21:50;;;;;;;6.03;1.43;;;8.70;99.90;;;;;;5056372;28;20506;-64
2024/02/04 00:24:19;;;;;;;10.20;3.13;;;8.70;99.90;;;;;;5058431;28;20467;-62
2024/02/04 00:26:52;;;;;;;17.07;2.10;;;8.70;99.90;;;;;;5060613;28;20439;-61
2024/02/04 00:29:21;;;;;;;2.27;1.93;;;8.70;99.90;;;;;;5060482;28;20440;-63
2024/02/04 00:31:48;;;;;;;7.07;1.93;;;8.60;99.90;;;;;;5060156;28;20434;-63
2024/02/04 00:34:16;;;;;;;6.00;1.83;;;8.60;99.90;;;;;;5059819;28;20464;-63
2024/02/04 00:36:43;;;;;;;4.33;2.03;;;8.60;99.90;;;;;;5059524;28;20451;-65
2024/02/04 00:39:11;;;;;;;4.13;2.03;;;8.60;99.90;;;;;;5059107;28;20472;-63
2024/02/04 00:41:38;;;;;;;5.13;1.83;;;8.60;99.90;;;;;;5059852;28;20440;-63
2024/02/04 00:44:05;;;;;;;4.87;1.80;;;8.50;99.90;;;;;;5060045;28;20435;-64
2024/02/04 00:46:31;;;;;;;17.30;4.10;;;8.50;99.90;;;;;;5059232;28;20492;-64
2024/02/04 00:49:00;;;;;;;8.40;1.80;;;8.40;99.90;;;;;;5059643;28;20458;-66
2024/02/04 00:51:28;;;;;;;6.43;1.77;;;8.40;99.90;;;;;;5059576;28;20444;-63
2024/02/04 00:53:55;;;;;;;3.83;1.37;;;8.30;99.90;;;;;;5059810;28;20466;-60
2024/02/04 00:56:22;;;;;;;5.10;1.80;;;8.30;99.90;;;;;;5059616;28;20423;-64
2024/02/04 00:58:49;;;;;;;8.37;1.70;;;8.20;99.90;;;;;;5059037;28;20471;-67
2024/02/04 01:01:16;;;;;;;4.53;2.20;;;8.20;99.90;;;;;;5059323;28;20449;-64
2024/02/04 01:03:42;;;;;;;5.23;2.20;;;8.20;99.90;;;;;;5059511;28;20443;-66
2024/02/04 01:06:09;;;;;;;10.40;1.27;;;8.10;99.90;;;;;;5059588;28;20479;-58
2024/02/04 01:08:38;;;;;;;12.47;3.33;;;8.10;99.90;;;;;;5058972;28;20507;-65
2024/02/04 01:11:05;;;;;;;7.90;2.50;;;8.00;99.90;;;;;;5058641;28;20539;-65
2024/02/04 01:13:32;;;;;;;2.67;1.80;;;8.00;99.90;;;;;;5059021;28;20487;-64
2024/02/04 01:15:59;;;;;;;13.30;1.87;;;8.00;99.90;;;;;;5058844;28;20446;-64
2024/02/04 01:18:31;;;;;;;8.67;2.10;;;7.90;99.90;;;;;;5058933;28;20450;-64
2024/02/04 01:20:58;;;;;;;7.40;1.47;;;7.90;99.90;;;;;;5058434;28;20467;-64
2024/02/04 01:23:25;;;;;;;4.20;2.73;;;7.90;99.90;;;;;;5058699;28;20497;-64
2024/02/04 01:25:53;;;;;;;10.60;5.13;;;8.00;99.90;;;;;;5058658;28;20481;-63
2024/02/04 01:28:20;;;;;;;8.03;1.60;;;8.00;99.90;;;;;;5058362;28;20443;-63
2024/02/04 01:30:47;;;;;;;7.97;2.27;;;8.00;99.90;;;;;;5059199;28;20434;-64
2024/02/04 01:33:16;;;;;;;7.50;2.70;;;7.90;99.90;;;;;;5058852;28;20432;-63
2024/02/04 01:35:43;;;;;;;14.77;2.70;;;8.00;99.90;;;;;;5057814;28;20467;-63
2024/02/04 01:38:10;;;;;;;5.27;2.13;;;7.90;99.90;;;;;;5059262;28;20506;-64
2024/02/04 01:40:37;;;;;;;10.23;1.83;;;7.80;99.90;;;;;;5058987;28;20451;-64
2024/02/04 01:43:05;;;;;;;5.37;1.80;;;7.80;99.90;;;;;;5058621;28;20451;-64
2024/02/04 01:45:32;;;;;;;9.33;2.70;;;7.80;99.90;;;;;;5058280;28;20535;-63
2024/02/04 01:47:59;;;;;;;4.13;1.63;;;7.80;99.90;;;;;;5058474;28;20455;-64
2024/02/04 01:50:26;;;;;;;7.63;2.07;;;7.80;99.90;;;;;;5059031;28;20438;-63
2024/02/04 01:52:53;;;;;;;8.83;1.97;;;7.80;99.90;;;;;;5058461;28;20427;-62
2024/02/04 01:55:20;;;;;;;7.63;2.23;;;7.80;99.90;;;;;;5058794;28;20444;-64
2024/02/04 01:57:49;;;;;;;9.53;2.07;;;7.80;99.90;;;;;;5058506;28;20462;-63
2024/02/04 02:00:18;;;;;;;11.30;2.07;;;7.80;99.90;;;;;;5058888;28;20494;-65
2024/02/04 02:02:47;;;;;;;9.03;2.20;;;7.80;99.90;;;;;;5058034;28;20451;-63
2024/02/04 02:05:15;;;;;;;8.63;3.23;;;7.70;99.90;;;;;;5057681;28;20468;-64
2024/02/04 02:07:43;;;;;;;5.10;1.80;;;7.60;99.90;;;;;;5058812;28;20431;-63
2024/02/04 02:10:12;;;;;;;6.13;1.60;;;7.60;99.90;;;;;;5058339;28;20436;-64
2024/02/04 02:12:43;;;;;;;5.97;1.70;;;7.50;99.90;;;;;;5058488;28;20462;-62
2024/02/04 02:15:15;;;;;;;9.40;1.63;;;7.50;99.90;;;;;;5058052;28;20427;-65
2024/02/04 02:17:52;;;;;;;6.37;1.67;;;7.50;99.90;;;;;;5058387;28;20427;-65
2024/02/04 02:20:24;;;;;;;2.90;1.70;;;7.50;99.90;;;;;;5058176;28;20426;-64
2024/02/04 02:23:00;;;;;;;13.47;3.13;;;7.50;99.90;;;;;;5058457;28;20424;-63
2024/02/04 02:25:33;;;;;;;6.20;2.07;;;7.40;99.90;;;;;;5058085;28;20470;-65
2024/02/04 02:28:01;;;;;;;3.43;1.50;;;7.50;99.90;;;;;;5057918;28;20435;-64
2024/02/04 02:30:28;;;;;;;8.00;3.03;;;7.50;99.90;;;;;;5057789;28;20490;-63
2024/02/04 02:32:55;;;;;;;15.37;2.67;;;7.50;99.90;;;;;;5058477;28;20430;-64
2024/02/04 02:35:24;;;;;;;8.93;2.40;;;7.40;99.90;;;;;;5057933;28;20473;-63
2024/02/04 02:37:57;;;;;;;7.03;2.10;;;7.40;99.90;;;;;;5057392;28;20462;-64
2024/02/04 02:40:27;;;;;;;13.00;4.20;;;7.40;99.90;;;;;;5057846;28;20411;-65
2024/02/04 02:42:58;;;;;;;3.53;1.50;;;7.40;99.90;;;;;;5057733;28;20471;-63
2024/02/04 02:45:27;;;;;;;8.90;2.73;;;7.40;99.90;;;;;;5057815;28;20467;-63
2024/02/04 02:47:55;;;;;;;5.90;1.70;;;7.40;99.90;;;;;;5057301;28;20470;-64
2024/02/04 02:50:22;;;;;;;4.50;1.90;;;7.40;99.90;;;;;;5057684;28;20475;-63
2024/02/04 02:52:49;;;;;;;10.20;3.30;;;7.40;99.90;;;;;;5058008;28;20443;-63
2024/02/04 02:55:18;;;;;;;4.67;2.30;;;7.30;99.90;;;;;;5058022;28;20475;-63
2024/02/04 02:57:45;;;;;;;7.03;1.50;;;7.30;99.90;;;;;;5058339;28;20447;-63
2024/02/04 03:00:15;;;;;;;13.33;3.37;;;7.30;99.90;;;;;;5058346;28;20480;-64
2024/02/04 03:02:41;;;;;;;3.83;1.80;;;7.30;99.90;;;;;;5058114;28;20454;-63
2024/02/04 03:05:09;;;;;;;9.30;1.93;;;7.30;99.90;;;;;;5057276;28;20431;-63
2024/02/04 03:07:39;;;;;;;9.60;3.00;;;7.30;99.90;;;;;;5056681;28;20447;-64
2024/02/04 03:10:07;;;;;;;3.70;1.93;;;7.30;99.90;;;;;;5057100;28;20431;-63
2024/02/04 03:12:33;;;;;;;2.50;1.57;;;7.30;99.90;;;;;;5057006;28;20471;-63
2024/02/04 03:15:00;;;;;;;10.13;2.23;;;7.40;99.90;;;;;;5056729;28;20436;-63
2024/02/04 03:17:29;;;;;;;8.17;3.77;;;7.50;99.90;;;;;;5056307;28;20446;-63
2024/02/04 03:19:55;;;;;;;7.23;1.83;;;7.50;99.90;;;;;;5056903;28;20462;-64
2024/02/04 03:22:25;;;;;;;7.80;2.70;;;7.50;99.90;;;;;;5057379;28;20446;-64
2024/02/04 03:24:52;;;;;;;6.87;2.30;;;7.50;99.90;;;;;;5056634;28;20490;-64
2024/02/04 03:27:19;;;;;;;5.30;2.13;;;7.50;99.90;;;;;;5057117;28;20497;-64
2024/02/04 03:29:47;;;;;;;8.70;2.70;;;7.50;99.90;;;;;;5056577;28;20457;-64
2024/02/04 03:32:14;;;;;;;5.83;2.83;;;7.50;99.90;;;;;;5056803;28;20887;-65
2024/02/04 03:34:44;;;;;;;8.20;2.53;;;7.50;99.90;;;;;;5056821;28;20458;-63
2024/02/04 03:37:11;;;;;;;10.43;2.00;;;7.50;99.90;;;;;;5055920;28;20467;-64
2024/02/04 03:39:37;;;;;;;6.73;1.87;;;7.60;99.90;;;;;;5056215;28;20429;-64
2024/02/04 03:42:05;;;;;;;5.73;2.23;;;7.60;99.90;;;;;;5056654;28;20435;-61
2024/02/04 03:44:32;;;;;;;5.33;2.53;;;7.60;99.90;;;;;;5056165;28;20515;-63
2024/02/04 03:46:58;;;;;;;5.03;2.50;;;7.60;99.90;;;;;;5056718;28;20474;-65
2024/02/04 03:49:29;;;;;;;12.53;4.37;;;7.60;99.90;;;;;;5056632;28;20450;-61
2024/02/04 03:51:57;;;;;;;6.50;2.03;;;7.60;99.90;;;;;;5056709;28;20450;-61
2024/02/04 03:54:24;;;;;;;4.43;2.17;;;7.60;99.90;;;;;;5056973;28;20835;-64
2024/02/04 03:56:51;;;;;;;9.53;2.63;;;7.60;99.90;;;;;;5056531;28;20467;-64
2024/02/04 03:59:18;;;;;;;6.70;2.17;;;7.60;99.90;;;;;;5058850;28;20434;-64
2024/02/04 04:01:49;;;;;;;4.90;2.20;;;7.60;99.90;;;;;;5060828;28;20424;-61
2024/02/04 04:04:16;;;;;;;3.17;1.93;;;7.60;99.90;;;;;;5060719;28;20459;-64
2024/02/04 04:06:45;;;;;;;2.87;2.00;;;7.60;99.90;;;;;;5059930;28;20494;-63
2024/02/04 04:09:13;;;;;;;4.67;2.27;;;7.50;99.90;;;;;;5060320;28;20454;-63
2024/02/04 04:11:40;;;;;;;4.57;1.47;;;7.50;99.90;;;;;;5061360;28;20482;-65
2024/02/04 04:14:07;;;;;;;9.47;2.27;;;7.50;99.90;;;;;;5060846;28;20446;-63
2024/02/04 04:16:34;;;;;;;6.93;2.60;;;7.50;99.90;;;;;;5060083;28;20771;-64
2024/02/04 04:19:01;;;;;;;8.37;2.30;;;7.40;99.90;;;;;;5060463;28;20478;-65
2024/02/04 04:21:28;;;;;;;14.67;2.73;;;7.50;99.90;;;;;;5059509;28;20435;-63
2024/02/04 04:23:54;;;;;;;4.63;2.80;;;7.50;99.90;;;;;;5060664;28;20486;-63
2024/02/04 04:26:23;;;;;;;5.90;2.07;;;7.40;99.90;;;;;;5060660;28;20496;-64
2024/02/04 04:28:49;;;;;;;8.77;1.83;;;7.30;99.90;;;;;;5060679;28;20474;-65
2024/02/04 04:31:16;;;;;;;7.20;2.23;;;7.30;99.90;;;;;;5059721;28;20450;-63
2024/02/04 04:33:43;;;;;;;4.20;2.23;;;7.30;99.90;;;;;;5060093;28;20426;-65
2024/02/04 04:36:10;;;;;;;4.77;2.23;;;7.30;99.90;;;;;;5060575;28;20455;-63
2024/02/04 04:38:37;;;;;;;13.43;3.60;;;7.30;99.90;;;;;;5060184;28;20447;-63
2024/02/04 04:41:04;;;;;;;7.43;1.70;;;7.30;99.90;;;;;;5060403;28;20449;-64
2024/02/04 04:43:32;;;;;;;6.63;2.57;;;7.30;99.90;;;;;;5059496;28;20475;-64
2024/02/04 04:45:59;;;;;;;8.23;2.30;;;7.30;99.90;;;;;;5059310;28;20458;-64
2024/02/04 04:48:28;;;;;;;5.00;2.23;;;7.30;99.90;;;;;;5059873;28;20442;-63
2024/02/04 04:50:55;;;;;;;4.47;1.43;;;7.20;99.90;;;;;;5059661;28;20475;-63
2024/02/04 04:53:22;;;;;;;6.73;1.83;;;7.20;99.90;;;;;;5058961;28;20447;-64
2024/02/04 04:55:49;;;;;;;5.80;1.93;;;7.20;99.90;;;;;;5058969;28;20461;-62
2024/02/04 04:58:16;;;;;;;4.77;2.10;;;7.20;99.90;;;;;;5059362;28;20451;-65
2024/02/04 05:00:44;;;;;;;4.03;1.60;;;7.10;99.90;;;;;;5059038;28;20450;-63
2024/02/04 05:03:11;;;;;;;5.80;2.97;;;7.10;99.90;;;;;;5058945;28;20500;-63
2024/02/04 05:05:37;;;;;;;1.40;1.30;;;7.10;99.90;;;;;;5060016;28;20418;-62
2024/02/04 05:08:05;;;;;;;3.37;1.70;;;7.10;99.90;;;;;;5059024;28;20458;-62
2024/02/04 05:10:32;;;;;;;5.33;1.57;;;7.10;99.90;;;;;;5058019;28;20471;-63
2024/02/04 05:12:59;;;;;;;4.77;1.90;;;7.10;99.90;;;;;;5059107;28;20435;-64
2024/02/04 05:15:26;;;;;;;3.10;1.77;;;7.10;99.90;;;;;;5059062;28;20453;-63
2024/02/04 05:17:54;;;;;;;2.80;1.53;;;7.00;99.90;;;;;;5059712;28;20481;-61
2024/02/04 05:20:21;;;;;;;3.70;1.60;;;7.00;99.90;;;;;;5060215;28;20486;-63
2024/02/04 05:22:47;;;;;;;13.77;2.20;;;7.00;99.90;;;;;;5059559;28;20453;-59
2024/02/04 05:25:14;;;;;;;8.97;1.73;;;7.00;99.90;;;;;;5059763;28;20423;-62
2024/02/04 05:27:41;;;;;;;5.27;1.90;;;7.00;99.90;;;;;;5058722;28;20904;-64
2024/02/04 05:30:08;;;;;;;6.67;2.07;;;7.00;99.90;;;;;;5059002;28;20505;-64
2024/02/04 05:32:35;;;;;;;3.70;1.60;;;7.00;99.90;;;;;;5059042;28;20447;-64
2024/02/04 05:35:04;;;;;;;12.03;1.97;;;7.00;99.90;;;;;;5058944;28;20431;-62
2024/02/04 05:37:30;;;;;;;19.60;1.80;;;7.00;99.90;;;;;;5058806;28;20463;-63
2024/02/04 05:39:58;;;;;;;6.20;2.43;;;7.00;99.90;;;;;;5058151;28;20427;-63
2024/02/04 05:42:25;;;;;;;6.13;1.30;;;7.00;99.90;;;;;;5058348;28;20481;-63
2024/02/04 05:44:52;;;;;;;4.90;2.07;;;7.00;99.90;;;;;;5058517;28;20474;-64
2024/02/04 05:47:19;;;;;;;5.20;1.60;;;7.00;99.90;;;;;;5057890;28;20479;-64
2024/02/04 05:49:46;;;;;;;5.80;1.67;;;7.00;99.90;;;;;;5057652;28;20474;-63
2024/02/04 05:52:15;;;;;;;5.47;1.50;;;7.00;99.90;;;;;;5058222;28;20430;-63
2024/02/04 05:54:42;;;;;;;3.37;1.50;;;7.00;99.90;;;;;;5058678;28;20473;-64
2024/02/04 05:57:11;;;;;;;3.80;2.00;;;7.00;99.90;;;;;;5057642;28;20458;-65
2024/02/04 05:59:38;;;;;;;12.07;1.93;;;7.00;99.90;;;;;;5057917;28;20434;-63
2024/02/04 06:02:11;;;;;;;3.03;1.70;;;7.00;99.90;;;;;;5058054;28;20446;-65
2024/02/04 06:04:39;;;;;;;3.70;2.00;;;6.90;99.90;;;;;;5057532;28;20434;-63
2024/02/04 06:07:06;;;;;;;4.03;1.67;;;7.00;99.90;;;;;;5057242;28;20482;-64
2024/02/04 06:09:37;;;;;;;5.67;2.43;;;7.00;99.90;;;;;;5057139;28;20474;-64
2024/02/04 06:12:06;;;;;;;5.77;2.10;;;7.00;99.90;;;;;;5057264;28;20442;-64
2024/02/04 06:14:39;;;;;;;8.57;2.20;;;7.00;99.90;;;;;;5057562;28;20465;-64
2024/02/04 06:17:08;;;;;;;9.13;2.23;;;7.00;99.90;;;;;;5057260;28;20532;-63
2024/02/04 06:19:35;;;;;;;2.70;1.53;;;7.00;99.90;;;;;;5057315;28;20494;-63
2024/02/04 06:22:02;;;;;;;3.00;2.27;;;7.00;99.90;;;;;;5056884;28;20432;-65
2024/02/04 06:24:29;;;;;;;4.63;2.10;;;7.10;99.90;;;;;;5056765;28;20475;-64
2024/02/04 06:26:57;;;;;;;4.00;1.50;;;7.10;99.90;;;;;;5056785;28;20478;-64
2024/02/04 06:29:24;;;;;;;4.70;1.90;;;7.10;99.90;;;;;;5056743;28;20466;-61
2024/02/04 06:31:54;;;;;;;5.17;2.17;;;7.20;99.90;;;;;;5057018;28;20475;-65
2024/02/04 06:34:21;;;;;;;8.00;3.20;;;7.20;99.90;;;;;;5056778;28;20467;-63
2024/02/04 06:36:48;;;;;;;2.53;1.67;;;7.20;99.90;;;;;;5056986;28;20443;-64
2024/02/04 06:39:15;;;;;;;10.63;2.23;;;7.20;99.90;;;;;;5056575;28;20467;-64
2024/02/04 06:41:41;;;;;;;4.83;2.30;;;7.20;99.90;;;;;;5056509;28;20451;-64
2024/02/04 06:44:11;;;;;;;3.20;2.53;;;7.20;99.90;;;;;;5056835;28;20448;-64
2024/02/04 06:46:38;;;;;;;6.13;3.00;;;7.20;99.90;;;;;;5056836;28;20495;-64
2024/02/04 06:49:08;;;;;;;10.60;3.10;;;7.20;99.90;;;;;;5056978;28;20910;-64
2024/02/04 06:51:36;;;;;;;5.53;1.93;;;7.20;99.90;;;;;;5056726;28;20438;-65
2024/02/04 06:54:03;;;;;;;4.77;2.70;;;7.20;99.90;;;;;;5057107;28;20446;-64
2024/02/04 06:56:30;;;;;;;4.90;2.80;;;7.20;99.90;;;;;;5057034;28;20445;-63
2024/02/04 06:58:57;;;;;;;7.00;3.43;;;7.10;99.90;;;;;;5056379;28;20449;-65
2024/02/04 07:01:25;;;;;;;8.10;3.20;;;7.20;99.90;;;;;;5056749;28;20450;-63
2024/02/04 07:03:52;;;;;;;5.40;3.97;;;7.20;99.90;;;;;;5056532;28;20442;-63
2024/02/04 07:06:19;;;;;;;3.77;2.23;;;7.20;99.90;;;;;;5056571;28;20434;-63
2024/02/04 07:08:45;;;;;;;7.60;3.50;;;7.20;99.90;;;;;;5056610;28;20465;-63
2024/02/04 07:11:12;;;;;;;5.73;3.07;;;7.20;99.90;;;;;;5056454;28;20446;-64
2024/02/04 07:13:39;;;;;;;10.00;3.90;;;7.20;99.90;;;;;;5056315;28;20451;-64
2024/02/04 07:16:06;;;;;;;6.77;3.07;;;7.20;99.90;;;;;;5056308;28;20437;-65
2024/02/04 07:18:34;;;;;;;8.87;2.87;;;7.20;99.90;;;;;;5056263;28;20446;-64
2024/02/04 07:21:01;;;;;;;8.60;3.10;;;7.20;99.90;;;;;;5055912;28;20580;-64
2024/02/04 07:23:28;;;;;;;6.13;2.97;;;7.20;99.90;;;;;;5056395;28;20426;-65
2024/02/04 07:25:55;;;;;;;5.53;3.67;;;7.20;99.90;;;;;;5056650;28;20439;-64
2024/02/04 07:28:22;;;;;;;5.37;3.17;;;7.30;99.90;;;;;;5056535;28;20521;-62
2024/02/04 07:30:48;;;;;;;4.67;2.83;;;7.30;99.90;;;;;;5056807;28;20423;-62
2024/02/04 07:33:15;;;;;;;6.67;2.90;;;7.30;99.90;;;;;;5055789;28;20454;-63
2024/02/04 07:35:44;;;;;;;8.47;3.10;;;7.40;99.90;;;;;;5056002;28;20452;-61
2024/02/04 07:38:11;;;;;;;9.57;3.73;;;7.40;99.90;;;;;;5056408;28;20443;-64
2024/02/04 07:40:37;;;;;;;6.20;3.07;;;7.40;99.90;;;;;;5056238;28;20442;-63
2024/02/04 07:43:04;;;;;;;7.10;2.70;;;7.40;99.90;;;;;;5055574;28;20478;-65
2024/02/04 07:45:31;;;;;;;4.93;2.70;;;7.40;99.90;;;;;;5056019;28;20455;-64
2024/02/04 07:47:58;;;;;;;5.53;3.00;;;7.50;99.90;;;;;;5056132;28;20483;-64
2024/02/04 07:50:25;;;;;;;6.03;4.73;;;7.50;99.90;;;;;;5056233;28;20470;-65
2024/02/04 07:52:57;;;;;;;5.73;3.87;;;7.50;99.90;;;;;;5055925;28;20473;-65
2024/02/04 07:55:23;;;;;;;7.53;3.03;;;7.60;99.90;;;;;;5056557;28;20424;-65
2024/02/04 07:57:50;;;;;;;6.23;3.00;;;7.60;99.90;;;;;;5055887;28;20478;-65
2024/02/04 08:00:18;;;;;;;6.77;3.20;;;7.70;99.90;;;;;;5056100;28;20449;-62
2024/02/04 08:02:47;;;;;;;6.07;3.20;;;7.60;99.90;;;;;;5056295;28;20461;-62
2024/02/04 08:05:15;;;;;;;15.13;4.70;;;7.60;99.90;;;;;;5055904;28;20482;-64
2024/02/04 08:07:42;;;;;;;6.13;3.00;;;7.70;99.90;;;;;;5055946;28;20477;-65
2024/02/04 08:10:10;;;;;;;6.40;3.30;;;7.70;99.90;;;;;;5055840;28;20451;-63
2024/02/04 08:12:37;;;;;;;9.43;3.00;;;7.70;99.90;;;;;;5055879;28;20535;-64
2024/02/04 08:15:05;;;;;;;8.70;4.00;;;7.80;99.90;;;;;;5056497;28;20439;-64
2024/02/04 08:17:33;;;;;;;6.20;3.83;;;7.80;99.90;;;;;;5056848;28;20459;-66
2024/02/04 08:20:00;;;;;;;5.87;2.97;;;7.80;99.90;;;;;;5055914;28;20432;-64
2024/02/04 08:22:27;;;;;;;15.93;3.40;;;7.80;99.90;;;;;;5056031;28;20444;-62
2024/02/04 08:24:53;;;;;;;8.10;2.90;;;7.90;99.90;;;;;;5056047;28;20469;-64
2024/02/04 08:27:22;;;;;;;8.77;3.40;;;7.90;99.90;;;;;;5056151;28;20493;-65
2024/02/04 08:29:48;;;;;;;8.43;3.20;;;8.00;99.90;;;;;;5056427;28;20450;-64
2024/02/04 08:32:17;;;;;;;7.80;3.60;;;8.00;99.90;;;;;;5056563;28;20435;-65
2024/02/04 08:34:44;;;;;;;9.83;2.97;;;8.00;99.90;;;;;;5056472;28;20463;-63
2024/02/04 08:37:11;;;;;;;20.53;3.87;;;8.00;99.90;;;;;;5056784;28;20425;-64
2024/02/04 08:39:39;;;;;;;8.63;3.30;;;8.00;99.90;;;;;;5056470;28;20452;-61
2024/02/04 08:42:06;;;;;;;4.50;2.90;;;8.00;99.90;;;;;;5056248;28;20426;-64
2024/02/04 08:44:34;;;;;;;7.30;2.70;;;8.00;99.90;;;;;;5056181;28;20438;-63
2024/02/04 08:47:01;;;;;;;9.53;3.27;;;8.00;99.90;;;;;;5059516;28;20462;-63
2024/02/04 08:49:28;;;;;;;5.20;2.43;;;8.00;99.90;;;;;;5059548;28;20431;-62
2024/02/04 08:51:55;;;;;;;9.87;4.73;;;8.10;99.90;;;;;;5059083;28;20443;-65
2024/02/04 08:54:22;;;;;;;3.87;2.30;;;8.10;99.90;;;;;;5059161;28;20485;-50
2024/02/04 08:56:48;;;;;;;6.67;2.07;;;8.20;99.90;;;;;;5058917;28;20455;-48
2024/02/04 08:59:15;;;;;;;6.47;2.27;;;8.20;99.90;;;;;;5059061;28;20537;-53
2024/02/04 09:01:44;;;;;;;4.40;2.67;;;8.20;99.90;;;;;;5058123;28;20496;-50
2024/02/04 09:04:10;;;;;;;13.40;3.10;;;8.20;99.90;;;;;;5058692;28;20445;-46
2024/02/04 09:06:37;;;;;;;7.07;2.40;;;8.30;99.90;;;;;;5058348;28;20447;-49
2024/02/04 09:09:04;;;;;;;4.40;2.57;;;8.30;99.90;;;;;;5058625;28;20491;-50
2024/02/04 09:11:31;;;;;;;10.73;2.00;;;8.40;99.90;;;;;;5058640;28;20477;-53
2024/02/04 09:13:58;;;;;;;2.90;1.50;;;8.40;99.90;;;;;;5058543;28;20440;-63
2024/02/04 09:16:25;;;;;;;5.40;2.03;;;8.40;99.90;;;;;;5059106;28;20427;-62
2024/02/04 09:18:53;;;;;;;7.50;2.67;;;8.40;99.90;;;;;;5058921;28;20450;-65
2024/02/04 09:21:20;;;;;;;6.17;2.13;;;8.40;99.90;;;;;;5058895;28;20448;-64
2024/02/04 09:23:47;;;;;;;15.83;3.40;;;8.40;99.90;;;;;;5058562;28;20436;-66
2024/02/04 09:26:14;;;;;;;2.90;1.67;;;8.40;99.90;;;;;;5058362;28;20447;-63
2024/02/04 09:28:41;;;;;;;4.57;2.60;;;8.50;99.90;;;;;;5058827;28;20530;-64
2024/02/04 09:31:09;;;;;;;5.37;2.30;;;8.50;99.90;;;;;;5058702;28;20431;-64
2024/02/04 09:33:37;;;;;;;6.83;2.10;;;8.50;99.90;;;;;;5058334;28;20431;-64
2024/02/04 09:36:06;;;;;;;7.13;1.53;;;8.50;99.90;;;;;;5058491;28;20479;-64
2024/02/04 09:38:33;;;;;;;5.17;1.40;;;8.60;99.90;;;;;;5058694;28;20471;-64
2024/02/04 09:41:03;;;;;;;5.60;2.00;;;8.60;99.90;;;;;;5058834;28;20466;-64
2024/02/04 09:43:31;;;;;;;5.17;1.70;;;8.70;99.90;;;;;;5058826;28;20436;-64
2024/02/04 09:46:01;;;;;;;5.80;2.90;;;8.70;99.90;;;;;;5058780;28;20431;-65
2024/02/04 09:48:33;;;;;;;2.30;1.30;;;8.70;99.90;;;;;;5058590;28;20479;-67
2024/02/04 09:51:00;;;;;;;6.17;2.53;;;8.70;99.90;;;;;;5058489;28;20454;-64
2024/02/04 09:53:34;;;;;;;7.90;1.97;;;8.70;99.90;;;;;;5057725;28;20427;-65
2024/02/04 09:56:03;;;;;;;4.80;1.87;;;8.80;99.90;;;;;;5057913;28;20475;-65
2024/02/04 09:58:30;;;;;;;12.77;1.83;;;8.90;99.90;;;;;;5057439;28;20424;-64
2024/02/04 10:00:58;;;;;;;9.73;2.70;;;8.90;99.90;;;;;;5058511;28;20423;-63
2024/02/04 10:03:25;;;;;;;6.30;1.63;;;8.90;99.90;;;;;;5058370;28;20423;-64
2024/02/04 10:05:52;;;;;;;4.97;1.50;;;9.00;99.90;;;;;;5058802;28;20439;-62
2024/02/04 10:08:19;;;;;;;12.77;1.83;;;9.10;99.90;;;;;;5058512;28;20480;-63
2024/02/04 10:10:48;;;;;;;3.77;1.00;;;9.00;99.90;;;;;;5058720;28;20461;-64
2024/02/04 10:13:15;;;;;;;13.03;2.70;;;9.00;99.90;;;;;;5058709;28;20486;-65
2024/02/04 10:15:42;;;;;;;2.73;0.90;;;8.90;99.90;;;;;;5058501;28;20412;-58
2024/02/04 10:18:09;;;;;;;9.27;4.20;;;8.90;99.90;;;;;;5058932;28;20448;-64
2024/02/04 10:20:39;;;;;;;9.87;2.50;;;9.00;99.90;;;;;;5058231;28;20479;-63
2024/02/04 10:23:06;;;;;;;5.00;1.60;;;9.10;99.90;;;;;;5057993;28;20468;-64
2024/02/04 10:25:33;;;;;;;3.50;1.10;;;9.20;99.90;;;;;;5058244;28;20443;-66
2024/02/04 10:28:02;;;;;;;4.50;1.70;;;9.30;99.90;;;;;;5058208;28;20470;-64
2024/02/04 10:30:29;;;;;;;2.97;1.53;;;9.40;99.90;;;;;;5057657;28;20431;-64
2024/02/04 10:32:56;;;;;;;4.17;1.50;;;9.40;99.90;;;;;;5057602;28;20459;-62
2024/02/04 10:35:24;;;;;;;7.70;1.17;;;9.50;99.90;;;;;;5057180;28;20554;-65
2024/02/04 10:37:51;;;;;;;7.73;1.40;;;9.40;99.90;;;;;;5057590;28;20447;-62
2024/02/04 10:40:18;;;;;;;4.73;1.77;;;9.40;99.90;;;;;;5057815;28;20440;-65
2024/02/04 10:42:45;;;;;;;6.63;1.40;;;9.40;99.90;;;;;;5057872;28;20442;-64
2024/02/04 10:45:17;;;;;;;3.30;1.43;;;9.50;99.90;;;;;;5057757;28;20483;-63
2024/02/04 10:47:51;;;;;;;1.60;0.90;;;9.50;99.90;;;;;;5057534;28;20475;-65
2024/02/04 10:50:18;;;;;;;3.07;1.20;;;9.40;99.90;;;;;;5057371;28;20419;-62
2024/02/04 10:52:47;;;;;;;7.27;1.50;;;9.40;99.90;;;;;;5057040;28;20453;-62
2024/02/04 10:55:18;;;;;;;3.90;1.07;;;9.30;99.90;;;;;;5057067;28;20458;-60
2024/02/04 10:57:45;;;;;;;2.30;1.10;;;9.30;99.90;;;;;;5056793;28;20471;-60
2024/02/04 11:00:15;;;;;;;3.13;1.13;;;9.20;99.90;;;;;;5057000;28;20450;-60
2024/02/04 11:02:48;;;;;;;7.03;1.60;;;9.10;99.90;;;;;;5056638;28;20505;-63
2024/02/04 11:05:17;;;;;;;1.30;0.80;;;9.10;99.90;;;;;;5056806;28;20451;-61
2024/02/04 11:07:44;;;;;;;3.00;2.07;;;9.10;99.90;;;;;;5056772;28;20482;-62
2024/02/04 11:10:11;;;;;;;3.73;1.40;;;9.10;99.90;;;;;;5056944;28;20469;-64
2024/02/04 11:12:41;;;;;;;3.60;1.47;;;9.10;99.90;;;;;;5056884;28;20452;-62
2024/02/04 11:15:11;;;;;;;3.60;1.20;;;9.10;99.90;;;;;;5056852;28;20487;-64
2024/02/04 11:18:06;;;;;;;1.37;1.00;;;9.10;99.90;;;;;;5056855;28;20875;-64
2024/02/04 11:20:56;;;;;;;2.50;1.20;;;9.10;99.90;;;;;;5056320;28;20458;-60
2024/02/04 11:23:49;;;;;;;3.03;1.10;;;9.10;99.90;;;;;;5052720;28;20530;-59
2024/02/04 11:26:18;;;;;;;2.73;1.20;;;9.10;99.90;;;;;;5052787;28;20475;-61
2024/02/04 11:28:45;;;;;;;7.07;1.80;;;9.10;99.90;;;;;;5056676;28;20476;-62
2024/02/04 11:31:16;;;;;;;1.93;1.30;;;9.10;99.90;;;;;;5057009;28;20456;-62
2024/02/04 11:33:45;;;;;;;9.47;1.40;;;9.10;99.90;;;;;;5056840;28;20409;-60
2024/02/04 11:36:15;;;;;;;7.37;2.67;;;9.10;99.90;;;;;;5056910;28;20428;-64
2024/02/04 11:38:42;;;;;;;3.73;1.47;;;9.10;99.90;;;;;;5056887;28;20547;-63
2024/02/04 11:41:09;;;;;;;1.50;1.20;;;9.10;99.90;;;;;;5056894;28;20442;-62
2024/02/04 11:43:38;;;;;;;3.37;1.63;;;9.10;99.90;;;;;;5056569;28;20503;-62
2024/02/04 11:46:06;;;;;;;3.10;1.60;;;9.00;99.90;;;;;;5056591;28;20446;-62
2024/02/04 11:48:36;;;;;;;3.50;1.07;;;9.00;99.90;;;;;;5055978;28;20518;-61
2024/02/04 11:51:07;;;;;;;2.07;1.00;;;9.00;99.90;;;;;;5056313;28;20486;-63
2024/02/04 11:53:34;;;;;;;3.37;1.20;;;9.10;99.90;;;;;;5056145;28;20431;-62
2024/02/04 11:56:02;;;;;;;8.23;1.13;;;9.10;99.90;;;;;;5056462;28;20461;-63
2024/02/04 11:58:32;;;;;;;7.60;2.33;;;9.10;99.90;;;;;;5056674;28;20452;-64
2024/02/04 12:00:59;;;;;;;2.60;1.37;;;9.00;99.90;;;;;;5056566;28;20478;-63
2024/02/04 12:03:31;;;;;;;5.50;1.63;;;9.10;99.90;;;;;;5056378;28;20477;-66
2024/02/04 12:05:58;;;;;;;2.60;1.33;;;9.10;99.90;;;;;;5056756;28;20459;-64
2024/02/04 12:08:31;;;;;;;5.63;1.50;;;9.20;99.90;;;;;;5056816;28;20513;-68
2024/02/04 12:11:00;;;;;;;5.20;1.50;;;9.40;99.90;;;;;;5057239;28;20417;-64
2024/02/04 12:13:29;;;;;;;3.00;1.20;;;9.60;99.90;;;;;;5056403;28;20456;-63
2024/02/04 12:15:56;;;;;;;5.07;1.23;;;9.50;99.90;;;;;;5056219;28;20435;-65
2024/02/04 12:18:23;;;;;;;8.83;1.90;;;9.50;99.90;;;;;;5056303;28;20447;-62
2024/02/04 12:20:50;;;;;;;3.30;1.27;;;9.40;99.90;;;;;;5059331;28;20461;-62
2024/02/04 12:23:18;;;;;;;2.27;1.10;;;9.40;99.90;;;;;;5059975;28;20447;-63
2024/02/04 12:25:49;;;;;;;1.93;1.73;;;9.30;99.90;;;;;;5059481;28;20447;-64
2024/02/04 12:28:17;;;;;;;4.93;4.43;;;9.20;99.90;;;;;;5060242;28;20448;-65
2024/02/04 12:30:54;;;;;;;5.00;1.80;;;9.20;99.90;;;;;;5059818;28;20463;-63
2024/02/04 12:33:21;;;;;;;2.23;1.30;;;9.10;99.90;;;;;;5060173;28;20461;-63
2024/02/04 12:35:51;;;;;;;1.90;1.23;;;9.00;99.90;;;;;;5059573;28;20455;-63
2024/02/04 12:38:21;;;;;;;6.93;2.00;;;9.00;99.90;;;;;;5059931;28;20415;-62
2024/02/04 12:40:50;;;;;;;5.23;1.37;;;8.90;99.90;;;;;;5060747;28;20418;-64
2024/02/04 12:43:18;;;;;;;1.70;1.10;;;8.90;99.90;;;;;;5060441;28;20471;-62
2024/02/04 12:45:48;;;;;;;2.23;1.00;;;8.90;99.90;;;;;;5060194;28;20442;-62
2024/02/04 12:48:18;;;;;;;1.50;0.90;;;8.90;99.90;;;;;;5059535;28;20439;-64
2024/02/04 12:50:45;;;;;;;1.80;1.30;;;8.80;99.90;;;;;;5060112;28;20474;-59
2024/02/04 12:53:12;;;;;;;7.53;1.63;;;8.80;99.90;;;;;;5059529;28;20430;-62
2024/02/04 12:55:40;;;;;;;3.20;1.47;;;8.80;99.90;;;;;;5059724;28;20463;-62
2024/02/04 12:58:11;;;;;;;3.40;1.53;;;8.80;99.90;;;;;;5059866;28;20432;-60
2024/02/04 13:00:39;;;;;;;6.43;1.60;;;8.80;99.90;;;;;;5058793;28;20419;-62